View Sortable Currents For Network
ASOSAWOSCoCoRaHSCOOPDCPISUSM
SchoolNetOtherSCANMy FavoritesBy StateRWIS
RWIS SurfaceRWIS TrafficRWIS SoilBy NWS WFOUSCRN

Current AWOS Conditions

** This page will automatically refresh every five minutes.
Sorted by: (Today's High Temperature)     Click on a column to sort it.

Add ID: Name: Ob Time   Wind [knots]   Rainfall
Temp (Hi / Lo) DewP Feels RH% Dir Speed Peak Gust
@ Time
Alti Vsby Hour Today
HNRHARLAN05:55 AM 7(9/7) 3 -7 83 100 89 @ 04:35 AM 30.27 10 0
CBFCOUNCIL BLUFFS05:55 AM 9(9/9) 5 -6 83 130 1011 @ 05:35 AM 30.24 10 0
RDKRED OAK05:55 AM 9(9/7) 3 -1 76 120 56 @ 04:15 AM 30.28 10 0
AIOATLANTIC05:55 AM 7(7/7) 1 -3 76 110 58 @ 04:35 AM 30.28 10 0
ICLCLARINDA05:55 AM 7(7/5) 1 -2 76 140 44 @ 12:35 AM 30.3 10 0
LRJLE MARS05:55 AM 5(7/5) -6 -6 60 100 5G1215 @ 03:35 AM 30.28 10 0
ORCOrange City05:55 AM 5(7/3) -2 -7 72 90 69 @ 02:55 AM 30.25 10 0
SDASHENANDOAH MUNI05:55 AM 7(7/5) 1 -5 76 100 66 @ 05:55 AM 30.29 10 0
ADUAUDUBON05:55 AM 5(7/5) -0 0 00 @ 06:00 PM 30.26 10 0
DNSDENISON05:55 AM 5(7/5) -2 -6 72 120 5G1011 @ 04:35 AM 30.28 10 0
CSQCRESTON05:55 AM 5(5/3) -0 80 68 @ 02:15 AM 30.27 10 0
CINCARROLL05:55 AM 5(5/3) -2 -7 72 70 610 @ 01:15 AM 30.28 10 0
MPZMOUNT PLEASANT 20 Jan 03:15 AMSite is Offline
IKVANKENY05:55 AM 5(5/1) -4 66 @ 06:00 PM 30.34 10 0
MUTMUSCATINE05:55 AM 5(5/3) -2 -6 72 350 510 @ 02:35 AM 30.35 10 0
I75Osceola05:55 AM 5(5/0) -1 76 0 06 @ 12:15 AM 30.29 10 0
PROPerry05:55 AM 4(5/2) -4 -5 69 80 48 @ 01:35 AM 30.29 10 0
CKPCherokee05:55 AM 4(4/3) -4 -10 69 80 89 @ 04:15 AM 30.28 10 0
PEAPELLA05:55 AM 4(4/-2) -4 -3 69 360 38 @ 12:35 AM 30.33 10 0
IFAIowa Falls05:55 AM 3(4/-1) -6 -8 65 30 510 @ 02:15 AM 30.31 10 0
IIBINDEPENDENCE05:55 AM 3(4/-3) -4 -11 72 10 711 @ 12:15 AM 30.31 10 0
OOAOskaloosa05:55 AM 4(4/-4) -3 -7 72 360 511 @ 03:35 AM 30.33 10 0
FFLFAIRFIELD05:55 AM 3(3/-0) -6 -9 65 350 610 @ 01:15 AM 30.32 10 0
TVKCenterville05:35 AM 3(3/-0) -0 0 09 @ 03:55 AM 30.32 10 0
EOKKEOKUK MUNI05:55 AM 1(3/-0) -4 -9 79 340 413 @ 02:15 AM 30.33 10 0
OXVKnoxville05:55 AM 3(3/-2) 3 100 0 014 @ 03:35 AM 30.31 10 0
EBSWebster City05:35 AM 3(3/-0) -8 -11 59 60 712 @ 12:55 AM 30.29 10 0
CNCCHARITON05:55 AM 3(3/-0) -2 -4 79 340 38 @ 01:35 AM 30.3 10 0
GGIGrinnell05:55 AM 3(3/-3) -4 -9 72 350 610 @ 03:35 AM 30.31 10 0
BNWBOONE MUNI05:55 AM 3(3/-0) -4 -11 72 30 710 @ 01:15 AM 30.3 10 0
HPTHampton05:55 AM 1(3/-4) -13 51 0 012 @ 12:55 AM 30.3 10 0
AWGWASHINGTON05:55 AM 3(3/-0) -4 -8 72 350 513 @ 12:15 AM 30.34 10 0
TNUNEWTON MUNI05:55 AM 3(3/-2) -4 -12 72 20 812 @ 03:15 AM 30.31 10 0
CWICLINTON05:56 AM 1(3/-2) -4 -17 79 340 1111 @ 12:25 AM 30.31 10 0
FODFORT DODGE05:56 AM 2(2/-1) -5 -12 72 70 710 @ 01:00 AM 30.31 9 0.0001 0.0001
CAVCLARION05:55 AM 1(1/-4) -8 -12 65 50 610 @ 12:35 AM 30.3 10 0
FSWFORT MADISON05:55 AM 1(1/-2) -4 -9 79 330 48 @ 12:15 AM 30.33 10 0
VTIVINTON05:55 AM 1(1/-3) -6 -10 72 330 58 @ 01:15 AM 30.33 10 0
SHLSHELDON05:55 AM 1(1/1) -2 -16 87 90 1012 @ 03:55 AM 30.25 3 0
SLBStorm Lake05:55 AM 1(1/1) -6 -17 72 80 1112 @ 05:35 AM 30.26 10 0
FXYForest City05:55 AM 1(1/-4) -8 -10 65 40 56 @ 12:15 AM 30.31 10 0
AXAALGONA05:35 AM -0(-0/-2) -6 50 812 @ 12:15 AM 30.28 5 0
CCYCHARLES CITY05:55 AM -2(-0/-8) -11 -18 65 30 89 @ 01:55 AM 30.31 10 0
DEHDECORAH05:55 AM -6(-0/-6) -11 78 0 08 @ 12:55 AM 30.3 10 0
MXOMONTICELLO MUNI05:55 AM M(0/0) M M M @ 06:00 PM 0